sensor_id;sensor_type;location;lat;lon;timestamp;temperature;humidity
30825;DHT22;17550;45.486;12.222;2023-05-21T00:02:14;17.30;99.90
30825;DHT22;17550;45.486;12.222;2023-05-21T00:04:42;17.30;99.90
30825;DHT22;17550;45.486;12.222;2023-05-21T00:07:08;17.30;99.90
30825;DHT22;17550;45.486;12.222;2023-05-21T00:09:35;17.30;99.90
30825;DHT22;17550;45.486;12.222;2023-05-21T00:12:03;17.30;99.90
30825;DHT22;17550;45.486;12.222;2023-05-21T00:14:29;17.30;99.90
30825;DHT22;17550;45.486;12.222;2023-05-21T00:16:55;17.30;99.90
30825;DHT22;17550;45.486;12.222;2023-05-21T00:19:20;17.20;99.90
30825;DHT22;17550;45.486;12.222;2023-05-21T00:21:46;17.20;99.90
30825;DHT22;17550;45.486;12.222;2023-05-21T00:24:12;17.30;99.90
30825;DHT22;17550;45.486;12.222;2023-05-21T00:26:37;17.40;99.90
30825;DHT22;17550;45.486;12.222;2023-05-21T00:29:03;17.30;99.90
30825;DHT22;17550;45.486;12.222;2023-05-21T00:31:29;17.40;99.90
30825;DHT22;17550;45.486;12.222;2023-05-21T00:33:55;17.40;99.90
30825;DHT22;17550;45.486;12.222;2023-05-21T00:36:20;17.40;99.90
30825;DHT22;17550;45.486;12.222;2023-05-21T00:38:50;17.40;99.90
30825;DHT22;17550;45.486;12.222;2023-05-21T00:41:17;17.40;99.90
30825;DHT22;17550;45.486;12.222;2023-05-21T00:43:43;17.40;99.90
30825;DHT22;17550;45.486;12.222;2023-05-21T00:46:11;17.40;99.90
30825;DHT22;17550;45.486;12.222;2023-05-21T00:48:38;17.30;99.90
30825;DHT22;17550;45.486;12.222;2023-05-21T00:51:05;17.30;99.90
30825;DHT22;17550;45.486;12.222;2023-05-21T00:53:31;17.40;99.90
30825;DHT22;17550;45.486;12.222;2023-05-21T00:55:59;17.30;99.90
30825;DHT22;17550;45.486;12.222;2023-05-21T00:58:25;17.30;99.90
30825;DHT22;17550;45.486;12.222;2023-05-21T01:00:52;17.40;99.90
30825;DHT22;17550;45.486;12.222;2023-05-21T01:03:21;17.30;99.90
30825;DHT22;17550;45.486;12.222;2023-05-21T01:05:51;17.30;99.90
30825;DHT22;17550;45.486;12.222;2023-05-21T01:08:21;17.30;99.90
30825;DHT22;17550;45.486;12.222;2023-05-21T01:10:48;17.30;99.90
30825;DHT22;17550;45.486;12.222;2023-05-21T01:13:15;17.30;99.90
30825;DHT22;17550;45.486;12.222;2023-05-21T01:15:45;17.30;99.90
30825;DHT22;17550;45.486;12.222;2023-05-21T01:18:12;17.30;99.90
30825;DHT22;17550;45.486;12.222;2023-05-21T01:20:39;17.30;99.90
30825;DHT22;17550;45.486;12.222;2023-05-21T01:23:07;17.30;99.90
30825;DHT22;17550;45.486;12.222;2023-05-21T01:25:34;17.30;99.90
30825;DHT22;17550;45.486;12.222;2023-05-21T01:27:59;17.20;99.90
30825;DHT22;17550;45.486;12.222;2023-05-21T01:30:26;17.20;99.90
30825;DHT22;17550;45.486;12.222;2023-05-21T01:35:25;17.10;99.90
30825;DHT22;17550;45.486;12.222;2023-05-21T01:37:56;17.10;99.90
30825;DHT22;17550;45.486;12.222;2023-05-21T01:40:30;17.10;99.90
30825;DHT22;17550;45.486;12.222;2023-05-21T01:42:59;17.00;99.90
30825;DHT22;17550;45.486;12.222;2023-05-21T01:45:27;17.00;99.90
30825;DHT22;17550;45.486;12.222;2023-05-21T01:47:54;17.00;99.90
30825;DHT22;17550;45.486;12.222;2023-05-21T01:50:22;17.00;99.90
30825;DHT22;17550;45.486;12.222;2023-05-21T01:52:54;17.00;99.90
30825;DHT22;17550;45.486;12.222;2023-05-21T01:55:21;17.10;99.90
30825;DHT22;17550;45.486;12.222;2023-05-21T01:57:53;17.10;99.90
30825;DHT22;17550;45.486;12.222;2023-05-21T02:00:24;17.10;99.90
30825;DHT22;17550;45.486;12.222;2023-05-21T02:02:52;17.10;99.90
30825;DHT22;17550;45.486;12.222;2023-05-21T02:05:18;17.20;99.90
30825;DHT22;17550;45.486;12.222;2023-05-21T02:07:44;17.20;99.90
30825;DHT22;17550;45.486;12.222;2023-05-21T02:10:11;17.20;99.90
30825;DHT22;17550;45.486;12.222;2023-05-21T02:12:37;17.20;99.90
30825;DHT22;17550;45.486;12.222;2023-05-21T02:15:03;17.20;99.90
30825;DHT22;17550;45.486;12.222;2023-05-21T02:17:30;17.20;99.90
30825;DHT22;17550;45.486;12.222;2023-05-21T02:19:58;17.20;99.90
30825;DHT22;17550;45.486;12.222;2023-05-21T02:22:32;17.20;99.90
30825;DHT22;17550;45.486;12.222;2023-05-21T02:24:58;17.20;99.90
30825;DHT22;17550;45.486;12.222;2023-05-21T02:27:24;17.30;99.90
30825;DHT22;17550;45.486;12.222;2023-05-21T02:29:51;17.20;99.90
30825;DHT22;17550;45.486;12.222;2023-05-21T02:32:17;17.20;99.90
30825;DHT22;17550;45.486;12.222;2023-05-21T02:34:42;17.20;99.90
30825;DHT22;17550;45.486;12.222;2023-05-21T02:37:09;17.20;99.90
30825;DHT22;17550;45.486;12.222;2023-05-21T02:39:35;17.20;99.90
30825;DHT22;17550;45.486;12.222;2023-05-21T02:42:00;17.20;99.90
30825;DHT22;17550;45.486;12.222;2023-05-21T02:44:26;17.20;99.90
30825;DHT22;17550;45.486;12.222;2023-05-21T02:46:52;17.20;99.90
30825;DHT22;17550;45.486;12.222;2023-05-21T02:49:17;17.30;99.90
30825;DHT22;17550;45.486;12.222;2023-05-21T02:51:43;17.30;99.90
30825;DHT22;17550;45.486;12.222;2023-05-21T02:54:09;17.30;99.90
30825;DHT22;17550;45.486;12.222;2023-05-21T02:56:34;17.30;99.90
30825;DHT22;17550;45.486;12.222;2023-05-21T02:59:00;17.30;99.90
30825;DHT22;17550;45.486;12.222;2023-05-21T03:01:26;17.30;99.90
30825;DHT22;17550;45.486;12.222;2023-05-21T03:03:51;17.40;99.90
30825;DHT22;17550;45.486;12.222;2023-05-21T03:06:17;17.30;99.90
30825;DHT22;17550;45.486;12.222;2023-05-21T03:08:43;17.40;99.90
30825;DHT22;17550;45.486;12.222;2023-05-21T03:11:09;17.40;99.90
30825;DHT22;17550;45.486;12.222;2023-05-21T03:13:35;17.40;99.90
30825;DHT22;17550;45.486;12.222;2023-05-21T03:16:00;17.50;99.90
30825;DHT22;17550;45.486;12.222;2023-05-21T03:18:26;17.50;99.90
30825;DHT22;17550;45.486;12.222;2023-05-21T03:20:52;17.50;99.90
30825;DHT22;17550;45.486;12.222;2023-05-21T03:23:17;17.50;99.90
30825;DHT22;17550;45.486;12.222;2023-05-21T03:25:43;17.50;99.90
30825;DHT22;17550;45.486;12.222;2023-05-21T03:28:10;17.60;99.90
30825;DHT22;17550;45.486;12.222;2023-05-21T03:30:36;17.50;99.90
30825;DHT22;17550;45.486;12.222;2023-05-21T03:33:03;17.60;99.90
30825;DHT22;17550;45.486;12.222;2023-05-21T03:35:29;17.60;99.90
30825;DHT22;17550;45.486;12.222;2023-05-21T03:37:55;17.50;99.90
30825;DHT22;17550;45.486;12.222;2023-05-21T03:40:20;17.50;99.90
30825;DHT22;17550;45.486;12.222;2023-05-21T03:42:46;17.50;99.90
30825;DHT22;17550;45.486;12.222;2023-05-21T03:45:12;17.60;99.90
30825;DHT22;17550;45.486;12.222;2023-05-21T03:47:38;17.60;99.90
30825;DHT22;17550;45.486;12.222;2023-05-21T03:50:04;17.60;99.90
30825;DHT22;17550;45.486;12.222;2023-05-21T03:52:30;17.60;99.90
30825;DHT22;17550;45.486;12.222;2023-05-21T03:54:56;17.70;99.90
30825;DHT22;17550;45.486;12.222;2023-05-21T03:57:21;17.70;99.90
30825;DHT22;17550;45.486;12.222;2023-05-21T03:59:47;17.70;99.90
30825;DHT22;17550;45.486;12.222;2023-05-21T04:02:13;17.70;99.90
30825;DHT22;17550;45.486;12.222;2023-05-21T04:04:38;17.60;99.90
30825;DHT22;17550;45.486;12.222;2023-05-21T04:07:04;17.70;99.90
30825;DHT22;17550;45.486;12.222;2023-05-21T04:09:30;17.70;99.90
30825;DHT22;17550;45.486;12.222;2023-05-21T04:11:56;17.70;99.90
30825;DHT22;17550;45.486;12.222;2023-05-21T04:14:22;17.70;99.90
30825;DHT22;17550;45.486;12.222;2023-05-21T04:16:48;17.70;99.90
30825;DHT22;17550;45.486;12.222;2023-05-21T04:19:14;17.70;99.90
30825;DHT22;17550;45.486;12.222;2023-05-21T04:21:40;17.80;99.90
30825;DHT22;17550;45.486;12.222;2023-05-21T04:24:06;17.80;99.90
30825;DHT22;17550;45.486;12.222;2023-05-21T04:26:32;17.80;99.90
30825;DHT22;17550;45.486;12.222;2023-05-21T04:28:59;17.80;99.90
30825;DHT22;17550;45.486;12.222;2023-05-21T04:31:29;17.80;99.90
30825;DHT22;17550;45.486;12.222;2023-05-21T04:33:55;17.80;99.90
30825;DHT22;17550;45.486;12.222;2023-05-21T04:36:21;17.80;99.90
30825;DHT22;17550;45.486;12.222;2023-05-21T04:38:47;17.80;99.90
30825;DHT22;17550;45.486;12.222;2023-05-21T04:41:13;17.80;99.90
30825;DHT22;17550;45.486;12.222;2023-05-21T04:43:39;17.80;99.90
30825;DHT22;17550;45.486;12.222;2023-05-21T04:46:08;17.80;99.90
30825;DHT22;17550;45.486;12.222;2023-05-21T04:48:34;17.90;99.90
30825;DHT22;17550;45.486;12.222;2023-05-21T04:50:59;17.90;99.90
30825;DHT22;17550;45.486;12.222;2023-05-21T04:53:25;17.80;99.90
30825;DHT22;17550;45.486;12.222;2023-05-21T04:55:51;17.80;99.90
30825;DHT22;17550;45.486;12.222;2023-05-21T04:58:16;17.90;99.90
30825;DHT22;17550;45.486;12.222;2023-05-21T05:00:42;17.90;99.90
30825;DHT22;17550;45.486;12.222;2023-05-21T05:03:10;17.90;99.90
30825;DHT22;17550;45.486;12.222;2023-05-21T05:05:36;17.90;99.90
30825;DHT22;17550;45.486;12.222;2023-05-21T05:08:01;17.90;99.90
30825;DHT22;17550;45.486;12.222;2023-05-21T05:10:28;17.90;99.90
30825;DHT22;17550;45.486;12.222;2023-05-21T05:12:54;17.90;99.90
30825;DHT22;17550;45.486;12.222;2023-05-21T05:15:19;18.00;99.90
30825;DHT22;17550;45.486;12.222;2023-05-21T05:17:45;18.00;99.90
30825;DHT22;17550;45.486;12.222;2023-05-21T05:20:14;18.00;99.90
30825;DHT22;17550;45.486;12.222;2023-05-21T05:22:40;18.00;99.90
30825;DHT22;17550;45.486;12.222;2023-05-21T05:25:06;18.10;99.90
30825;DHT22;17550;45.486;12.222;2023-05-21T05:27:32;18.20;99.90
30825;DHT22;17550;45.486;12.222;2023-05-21T05:29:58;18.20;99.90
30825;DHT22;17550;45.486;12.222;2023-05-21T05:32:23;18.30;99.90
30825;DHT22;17550;45.486;12.222;2023-05-21T05:34:49;18.40;99.90
30825;DHT22;17550;45.486;12.222;2023-05-21T05:37:15;18.60;99.90
30825;DHT22;17550;45.486;12.222;2023-05-21T05:39:41;18.70;99.90
30825;DHT22;17550;45.486;12.222;2023-05-21T05:42:07;18.90;99.90
30825;DHT22;17550;45.486;12.222;2023-05-21T05:44:33;19.20;99.90
30825;DHT22;17550;45.486;12.222;2023-05-21T05:46:59;19.30;99.90
30825;DHT22;17550;45.486;12.222;2023-05-21T05:49:24;19.40;99.90
30825;DHT22;17550;45.486;12.222;2023-05-21T05:51:50;19.60;99.90
30825;DHT22;17550;45.486;12.222;2023-05-21T05:54:16;19.80;99.90
30825;DHT22;17550;45.486;12.222;2023-05-21T05:56:41;20.00;99.90
30825;DHT22;17550;45.486;12.222;2023-05-21T05:59:07;20.00;99.90
30825;DHT22;17550;45.486;12.222;2023-05-21T06:01:33;20.10;99.90
30825;DHT22;17550;45.486;12.222;2023-05-21T06:03:58;20.10;99.90
30825;DHT22;17550;45.486;12.222;2023-05-21T06:06:24;20.10;99.90
30825;DHT22;17550;45.486;12.222;2023-05-21T06:08:50;20.10;99.90
30825;DHT22;17550;45.486;12.222;2023-05-21T06:11:15;20.00;99.90
30825;DHT22;17550;45.486;12.222;2023-05-21T06:13:43;20.10;99.90
30825;DHT22;17550;45.486;12.222;2023-05-21T06:16:09;20.20;99.90
30825;DHT22;17550;45.486;12.222;2023-05-21T06:18:36;20.20;99.90
30825;DHT22;17550;45.486;12.222;2023-05-21T06:21:01;20.20;99.90
30825;DHT22;17550;45.486;12.222;2023-05-21T06:23:27;20.30;99.90
30825;DHT22;17550;45.486;12.222;2023-05-21T06:25:53;20.40;99.90
30825;DHT22;17550;45.486;12.222;2023-05-21T06:28:18;20.60;99.90
30825;DHT22;17550;45.486;12.222;2023-05-21T06:30:44;20.60;99.90
30825;DHT22;17550;45.486;12.222;2023-05-21T06:33:10;20.70;99.90
30825;DHT22;17550;45.486;12.222;2023-05-21T06:35:35;20.80;99.90
30825;DHT22;17550;45.486;12.222;2023-05-21T06:38:03;20.80;99.90
30825;DHT22;17550;45.486;12.222;2023-05-21T06:40:29;20.90;99.90
30825;DHT22;17550;45.486;12.222;2023-05-21T06:42:54;21.00;99.90
30825;DHT22;17550;45.486;12.222;2023-05-21T06:45:20;21.00;99.90
30825;DHT22;17550;45.486;12.222;2023-05-21T06:47:46;21.20;99.90
30825;DHT22;17550;45.486;12.222;2023-05-21T06:50:12;21.20;99.90
30825;DHT22;17550;45.486;12.222;2023-05-21T06:52:38;21.30;99.90
30825;DHT22;17550;45.486;12.222;2023-05-21T06:55:04;21.50;99.90
30825;DHT22;17550;45.486;12.222;2023-05-21T06:57:30;21.60;99.90
30825;DHT22;17550;45.486;12.222;2023-05-21T06:59:56;21.70;99.90
30825;DHT22;17550;45.486;12.222;2023-05-21T07:02:22;21.80;99.90
30825;DHT22;17550;45.486;12.222;2023-05-21T07:04:47;22.00;99.90
30825;DHT22;17550;45.486;12.222;2023-05-21T07:07:13;22.20;99.90
30825;DHT22;17550;45.486;12.222;2023-05-21T07:09:39;22.50;99.90
30825;DHT22;17550;45.486;12.222;2023-05-21T07:12:04;22.60;99.50
30825;DHT22;17550;45.486;12.222;2023-05-21T07:14:30;22.60;99.80
30825;DHT22;17550;45.486;12.222;2023-05-21T07:16:56;22.80;99.90
30825;DHT22;17550;45.486;12.222;2023-05-21T07:19:22;22.90;99.70
30825;DHT22;17550;45.486;12.222;2023-05-21T07:21:48;22.80;98.80
30825;DHT22;17550;45.486;12.222;2023-05-21T07:24:14;22.90;99.70
30825;DHT22;17550;45.486;12.222;2023-05-21T07:26:39;23.00;98.80
30825;DHT22;17550;45.486;12.222;2023-05-21T07:29:05;23.00;99.30
30825;DHT22;17550;45.486;12.222;2023-05-21T07:31:31;23.10;98.50
30825;DHT22;17550;45.486;12.222;2023-05-21T07:33:56;23.30;98.60
30825;DHT22;17550;45.486;12.222;2023-05-21T07:36:22;23.30;98.10
30825;DHT22;17550;45.486;12.222;2023-05-21T07:38:48;23.30;98.50
30825;DHT22;17550;45.486;12.222;2023-05-21T07:41:14;23.30;98.60
30825;DHT22;17550;45.486;12.222;2023-05-21T07:43:39;23.30;98.40
30825;DHT22;17550;45.486;12.222;2023-05-21T07:46:05;23.50;98.40
30825;DHT22;17550;45.486;12.222;2023-05-21T07:48:31;23.40;97.90
30825;DHT22;17550;45.486;12.222;2023-05-21T07:50:57;23.40;98.30
30825;DHT22;17550;45.486;12.222;2023-05-21T07:53:23;23.40;98.30
30825;DHT22;17550;45.486;12.222;2023-05-21T07:55:49;23.60;98.40
30825;DHT22;17550;45.486;12.222;2023-05-21T07:58:16;23.60;98.50
30825;DHT22;17550;45.486;12.222;2023-05-21T08:00:44;23.60;98.20
30825;DHT22;17550;45.486;12.222;2023-05-21T08:03:13;23.60;97.80
30825;DHT22;17550;45.486;12.222;2023-05-21T08:05:43;23.60;97.80
30825;DHT22;17550;45.486;12.222;2023-05-21T08:08:15;23.60;98.00
30825;DHT22;17550;45.486;12.222;2023-05-21T08:10:42;23.60;97.80
30825;DHT22;17550;45.486;12.222;2023-05-21T08:13:10;23.70;97.60
30825;DHT22;17550;45.486;12.222;2023-05-21T08:15:36;23.80;97.70
30825;DHT22;17550;45.486;12.222;2023-05-21T08:18:02;23.80;97.70
30825;DHT22;17550;45.486;12.222;2023-05-21T08:20:28;23.80;98.20
30825;DHT22;17550;45.486;12.222;2023-05-21T08:22:55;23.90;97.60
30825;DHT22;17550;45.486;12.222;2023-05-21T08:25:21;24.00;97.30
30825;DHT22;17550;45.486;12.222;2023-05-21T08:27:47;24.00;97.10
30825;DHT22;17550;45.486;12.222;2023-05-21T08:30:13;24.00;97.30
30825;DHT22;17550;45.486;12.222;2023-05-21T08:32:39;24.10;96.30
30825;DHT22;17550;45.486;12.222;2023-05-21T08:35:06;24.20;96.50
30825;DHT22;17550;45.486;12.222;2023-05-21T08:37:32;24.30;95.70
30825;DHT22;17550;45.486;12.222;2023-05-21T08:39:58;24.40;95.40
30825;DHT22;17550;45.486;12.222;2023-05-21T08:42:35;24.40;94.40
30825;DHT22;17550;45.486;12.222;2023-05-21T08:45:07;24.50;94.60
30825;DHT22;17550;45.486;12.222;2023-05-21T08:47:34;24.60;93.80
30825;DHT22;17550;45.486;12.222;2023-05-21T08:50:03;24.50;94.00
30825;DHT22;17550;45.486;12.222;2023-05-21T08:52:30;24.50;93.60
30825;DHT22;17550;45.486;12.222;2023-05-21T08:54:57;24.50;93.40
30825;DHT22;17550;45.486;12.222;2023-05-21T08:57:24;24.60;94.00
30825;DHT22;17550;45.486;12.222;2023-05-21T08:59:51;24.60;93.30
30825;DHT22;17550;45.486;12.222;2023-05-21T09:02:18;24.60;93.20
30825;DHT22;17550;45.486;12.222;2023-05-21T09:04:45;24.60;93.40
30825;DHT22;17550;45.486;12.222;2023-05-21T09:07:14;24.80;93.40
30825;DHT22;17550;45.486;12.222;2023-05-21T09:12:18;24.90;93.30
30825;DHT22;17550;45.486;12.222;2023-05-21T09:14:45;25.10;93.30
30825;DHT22;17550;45.486;12.222;2023-05-21T09:17:15;25.20;93.30
30825;DHT22;17550;45.486;12.222;2023-05-21T09:20:23;25.20;93.20
30825;DHT22;17550;45.486;12.222;2023-05-21T09:22:47;25.20;92.40
30825;DHT22;17550;45.486;12.222;2023-05-21T09:25:16;25.20;92.70
30825;DHT22;17550;45.486;12.222;2023-05-21T09:27:42;25.20;93.60
30825;DHT22;17550;45.486;12.222;2023-05-21T09:30:15;25.20;92.90
30825;DHT22;17550;45.486;12.222;2023-05-21T09:32:42;25.20;92.20
30825;DHT22;17550;45.486;12.222;2023-05-21T09:35:09;25.20;92.80
30825;DHT22;17550;45.486;12.222;2023-05-21T09:37:42;25.30;92.70
30825;DHT22;17550;45.486;12.222;2023-05-21T09:42:38;25.50;92.40
30825;DHT22;17550;45.486;12.222;2023-05-21T09:45:06;25.60;90.60
30825;DHT22;17550;45.486;12.222;2023-05-21T09:47:32;25.50;90.50
30825;DHT22;17550;45.486;12.222;2023-05-21T09:49:58;25.40;91.30
30825;DHT22;17550;45.486;12.222;2023-05-21T09:52:24;25.40;90.90
30825;DHT22;17550;45.486;12.222;2023-05-21T09:54:51;25.60;90.90
30825;DHT22;17550;45.486;12.222;2023-05-21T09:57:23;25.60;90.20
30825;DHT22;17550;45.486;12.222;2023-05-21T09:59:49;25.60;90.50
30825;DHT22;17550;45.486;12.222;2023-05-21T10:02:22;25.60;90.90
30825;DHT22;17550;45.486;12.222;2023-05-21T10:04:49;25.80;90.50
30825;DHT22;17550;45.486;12.222;2023-05-21T10:07:20;25.80;90.90
30825;DHT22;17550;45.486;12.222;2023-05-21T10:09:52;25.90;90.10
30825;DHT22;17550;45.486;12.222;2023-05-21T10:12:21;25.90;90.00
30825;DHT22;17550;45.486;12.222;2023-05-21T10:14:50;25.90;89.80
30825;DHT22;17550;45.486;12.222;2023-05-21T10:17:18;25.90;87.50
30825;DHT22;17550;45.486;12.222;2023-05-21T10:19:45;25.80;89.10
30825;DHT22;17550;45.486;12.222;2023-05-21T10:22:12;25.80;88.90
30825;DHT22;17550;45.486;12.222;2023-05-21T10:24:39;25.80;89.60
30825;DHT22;17550;45.486;12.222;2023-05-21T10:27:06;25.80;90.10
30825;DHT22;17550;45.486;12.222;2023-05-21T10:29:32;25.80;87.80
30825;DHT22;17550;45.486;12.222;2023-05-21T10:32:03;25.80;87.80
30825;DHT22;17550;45.486;12.222;2023-05-21T10:34:30;25.90;87.50
30825;DHT22;17550;45.486;12.222;2023-05-21T10:37:00;26.00;84.90
30825;DHT22;17550;45.486;12.222;2023-05-21T10:39:28;26.10;85.50
30825;DHT22;17550;45.486;12.222;2023-05-21T10:42:17;26.20;85.30
30825;DHT22;17550;45.486;12.222;2023-05-21T10:53:21;26.70;85.80
30825;DHT22;17550;45.486;12.222;2023-05-21T11:01:16;26.60;87.20
30825;DHT22;17550;45.486;12.222;2023-05-21T11:03:45;26.70;82.60
30825;DHT22;17550;45.486;12.222;2023-05-21T11:06:25;26.70;82.60
30825;DHT22;17550;45.486;12.222;2023-05-21T11:08:51;26.70;82.90
30825;DHT22;17550;45.486;12.222;2023-05-21T11:11:42;26.70;83.90
30825;DHT22;17550;45.486;12.222;2023-05-21T11:17:03;26.90;81.50
30825;DHT22;17550;45.486;12.222;2023-05-21T11:19:37;26.90;82.20
30825;DHT22;17550;45.486;12.222;2023-05-21T11:22:07;26.90;81.40
30825;DHT22;17550;45.486;12.222;2023-05-21T11:24:36;27.00;81.70
30825;DHT22;17550;45.486;12.222;2023-05-21T11:27:04;27.10;81.00
30825;DHT22;17550;45.486;12.222;2023-05-21T11:29:41;27.20;80.90
30825;DHT22;17550;45.486;12.222;2023-05-21T11:32:12;27.30;81.60
30825;DHT22;17550;45.486;12.222;2023-05-21T11:34:46;27.20;81.00
30825;DHT22;17550;45.486;12.222;2023-05-21T11:39:48;26.80;83.60
30825;DHT22;17550;45.486;12.222;2023-05-21T11:42:33;26.80;84.00
30825;DHT22;17550;45.486;12.222;2023-05-21T11:45:01;26.80;84.20
30825;DHT22;17550;45.486;12.222;2023-05-21T11:47:28;27.00;83.80
30825;DHT22;17550;45.486;12.222;2023-05-21T11:49:55;27.20;83.10
30825;DHT22;17550;45.486;12.222;2023-05-21T11:52:21;27.00;80.90
30825;DHT22;17550;45.486;12.222;2023-05-21T11:54:51;27.00;80.50
30825;DHT22;17550;45.486;12.222;2023-05-21T11:57:19;26.90;78.90
30825;DHT22;17550;45.486;12.222;2023-05-21T11:59:49;26.90;81.30
30825;DHT22;17550;45.486;12.222;2023-05-21T12:02:19;26.90;80.60
30825;DHT22;17550;45.486;12.222;2023-05-21T12:04:47;26.90;81.00
30825;DHT22;17550;45.486;12.222;2023-05-21T12:07:15;27.00;81.30
30825;DHT22;17550;45.486;12.222;2023-05-21T12:09:43;27.00;82.30
30825;DHT22;17550;45.486;12.222;2023-05-21T12:12:10;27.10;80.70
30825;DHT22;17550;45.486;12.222;2023-05-21T12:14:41;27.00;79.10
30825;DHT22;17550;45.486;12.222;2023-05-21T12:17:07;26.90;79.90
30825;DHT22;17550;45.486;12.222;2023-05-21T12:19:36;26.90;78.80
30825;DHT22;17550;45.486;12.222;2023-05-21T12:22:03;26.90;78.60
30825;DHT22;17550;45.486;12.222;2023-05-21T12:24:29;26.90;78.50
30825;DHT22;17550;45.486;12.222;2023-05-21T12:27:00;26.90;78.30
30825;DHT22;17550;45.486;12.222;2023-05-21T12:29:32;27.10;80.10
30825;DHT22;17550;45.486;12.222;2023-05-21T12:32:00;27.10;78.60
30825;DHT22;17550;45.486;12.222;2023-05-21T12:34:56;27.20;77.10
30825;DHT22;17550;45.486;12.222;2023-05-21T12:37:26;27.10;76.80
30825;DHT22;17550;45.486;12.222;2023-05-21T12:39:58;27.20;78.70
30825;DHT22;17550;45.486;12.222;2023-05-21T12:42:29;27.30;77.60
30825;DHT22;17550;45.486;12.222;2023-05-21T12:44:56;27.20;77.70
30825;DHT22;17550;45.486;12.222;2023-05-21T12:47:25;27.30;78.10
30825;DHT22;17550;45.486;12.222;2023-05-21T12:50:18;27.30;77.40
30825;DHT22;17550;45.486;12.222;2023-05-21T12:52:45;27.30;78.30
30825;DHT22;17550;45.486;12.222;2023-05-21T12:55:13;27.40;77.30
30825;DHT22;17550;45.486;12.222;2023-05-21T12:57:39;27.50;79.00
30825;DHT22;17550;45.486;12.222;2023-05-21T13:00:05;27.50;77.90
30825;DHT22;17550;45.486;12.222;2023-05-21T13:02:34;27.30;77.40
30825;DHT22;17550;45.486;12.222;2023-05-21T13:05:04;27.30;78.10
30825;DHT22;17550;45.486;12.222;2023-05-21T13:07:32;27.30;75.80
30825;DHT22;17550;45.486;12.222;2023-05-21T13:09:59;27.30;77.50
30825;DHT22;17550;45.486;12.222;2023-05-21T13:12:27;27.30;77.70
30825;DHT22;17550;45.486;12.222;2023-05-21T13:14:58;27.30;78.50
30825;DHT22;17550;45.486;12.222;2023-05-21T13:17:26;27.40;78.70
30825;DHT22;17550;45.486;12.222;2023-05-21T13:20:14;27.40;77.70
30825;DHT22;17550;45.486;12.222;2023-05-21T13:22:42;27.30;77.50
30825;DHT22;17550;45.486;12.222;2023-05-21T13:25:12;27.40;76.30
30825;DHT22;17550;45.486;12.222;2023-05-21T13:27:40;27.40;75.80
30825;DHT22;17550;45.486;12.222;2023-05-21T13:30:07;27.60;77.10
30825;DHT22;17550;45.486;12.222;2023-05-21T13:32:34;27.60;76.00
30825;DHT22;17550;45.486;12.222;2023-05-21T13:35:00;27.50;76.10
30825;DHT22;17550;45.486;12.222;2023-05-21T13:37:26;27.50;78.50
30825;DHT22;17550;45.486;12.222;2023-05-21T13:39:52;27.70;78.90
30825;DHT22;17550;45.486;12.222;2023-05-21T13:42:17;27.90;77.00
30825;DHT22;17550;45.486;12.222;2023-05-21T13:44:45;27.90;74.90
30825;DHT22;17550;45.486;12.222;2023-05-21T13:47:10;27.60;76.90
30825;DHT22;17550;45.486;12.222;2023-05-21T13:49:37;27.70;76.00
30825;DHT22;17550;45.486;12.222;2023-05-21T13:52:03;27.80;76.60
30825;DHT22;17550;45.486;12.222;2023-05-21T13:54:29;28.10;77.10
30825;DHT22;17550;45.486;12.222;2023-05-21T13:56:55;28.20;75.20
30825;DHT22;17550;45.486;12.222;2023-05-21T13:59:21;27.90;76.30
30825;DHT22;17550;45.486;12.222;2023-05-21T14:01:46;27.70;75.10
30825;DHT22;17550;45.486;12.222;2023-05-21T14:04:15;27.70;76.00
30825;DHT22;17550;45.486;12.222;2023-05-21T14:06:41;27.80;75.20
30825;DHT22;17550;45.486;12.222;2023-05-21T14:09:06;27.60;76.10
30825;DHT22;17550;45.486;12.222;2023-05-21T14:11:32;27.50;76.60
30825;DHT22;17550;45.486;12.222;2023-05-21T14:13:59;27.40;76.90
30825;DHT22;17550;45.486;12.222;2023-05-21T14:16:25;27.30;77.50
30825;DHT22;17550;45.486;12.222;2023-05-21T14:18:55;27.30;78.00
30825;DHT22;17550;45.486;12.222;2023-05-21T14:21:21;27.30;79.00
30825;DHT22;17550;45.486;12.222;2023-05-21T14:23:47;27.50;78.60
30825;DHT22;17550;45.486;12.222;2023-05-21T14:26:13;27.70;78.90
30825;DHT22;17550;45.486;12.222;2023-05-21T14:28:39;27.70;77.90
30825;DHT22;17550;45.486;12.222;2023-05-21T14:31:05;27.80;78.10
30825;DHT22;17550;45.486;12.222;2023-05-21T14:33:32;27.90;76.60
30825;DHT22;17550;45.486;12.222;2023-05-21T14:35:58;28.00;76.80
30825;DHT22;17550;45.486;12.222;2023-05-21T14:38:24;28.00;75.30
30825;DHT22;17550;45.486;12.222;2023-05-21T14:40:50;28.00;75.50
30825;DHT22;17550;45.486;12.222;2023-05-21T14:43:16;28.10;75.70
30825;DHT22;17550;45.486;12.222;2023-05-21T14:45:41;28.20;74.80
30825;DHT22;17550;45.486;12.222;2023-05-21T14:48:07;28.00;75.20
30825;DHT22;17550;45.486;12.222;2023-05-21T14:50:34;27.70;75.80
30825;DHT22;17550;45.486;12.222;2023-05-21T14:53:07;27.70;75.40
30825;DHT22;17550;45.486;12.222;2023-05-21T14:55:35;27.60;75.80
30825;DHT22;17550;45.486;12.222;2023-05-21T14:58:02;27.30;74.60
30825;DHT22;17550;45.486;12.222;2023-05-21T15:00:31;27.20;75.60
30825;DHT22;17550;45.486;12.222;2023-05-21T15:02:57;27.00;76.20
30825;DHT22;17550;45.486;12.222;2023-05-21T15:05:24;27.10;78.10
30825;DHT22;17550;45.486;12.222;2023-05-21T15:07:50;27.20;76.90
30825;DHT22;17550;45.486;12.222;2023-05-21T15:10:16;27.30;77.30
30825;DHT22;17550;45.486;12.222;2023-05-21T15:12:42;27.30;75.40
30825;DHT22;17550;45.486;12.222;2023-05-21T15:15:08;27.40;76.00
30825;DHT22;17550;45.486;12.222;2023-05-21T15:17:34;27.30;76.40
30825;DHT22;17550;45.486;12.222;2023-05-21T15:20:00;27.30;76.20
30825;DHT22;17550;45.486;12.222;2023-05-21T15:22:29;27.40;75.60
30825;DHT22;17550;45.486;12.222;2023-05-21T15:24:55;27.40;74.60
30825;DHT22;17550;45.486;12.222;2023-05-21T15:27:20;27.40;75.60
30825;DHT22;17550;45.486;12.222;2023-05-21T15:29:46;27.30;76.00
30825;DHT22;17550;45.486;12.222;2023-05-21T15:32:12;27.20;76.80
30825;DHT22;17550;45.486;12.222;2023-05-21T15:34:38;27.10;77.00
30825;DHT22;17550;45.486;12.222;2023-05-21T15:37:04;27.00;76.80
30825;DHT22;17550;45.486;12.222;2023-05-21T15:39:29;27.00;77.80
30825;DHT22;17550;45.486;12.222;2023-05-21T15:41:55;26.90;77.10
30825;DHT22;17550;45.486;12.222;2023-05-21T15:44:21;27.00;77.30